sensor_id;sensor_type;location;lat;lon;timestamp;temperature;humidity
71142;DHT22;58808;59.366;17.970;2023-05-16T00:00:07;14.30;92.60
71142;DHT22;58808;59.366;17.970;2023-05-16T00:02:36;14.20;92.90
71142;DHT22;58808;59.366;17.970;2023-05-16T00:05:04;14.20;93.10
71142;DHT22;58808;59.366;17.970;2023-05-16T00:07:33;14.10;93.50
71142;DHT22;58808;59.366;17.970;2023-05-16T00:09:59;14.20;93.40
71142;DHT22;58808;59.366;17.970;2023-05-16T00:12:25;14.20;93.40
71142;DHT22;58808;59.366;17.970;2023-05-16T00:14:52;14.20;93.50
71142;DHT22;58808;59.366;17.970;2023-05-16T00:17:18;14.20;93.80
71142;DHT22;58808;59.366;17.970;2023-05-16T00:19:45;14.10;94.00
71142;DHT22;58808;59.366;17.970;2023-05-16T00:22:14;14.00;94.10
71142;DHT22;58808;59.366;17.970;2023-05-16T00:24:41;14.00;94.50
71142;DHT22;58808;59.366;17.970;2023-05-16T00:27:07;14.00;94.70
71142;DHT22;58808;59.366;17.970;2023-05-16T00:29:34;14.00;94.60
71142;DHT22;58808;59.366;17.970;2023-05-16T00:32:00;13.90;94.60
71142;DHT22;58808;59.366;17.970;2023-05-16T00:34:25;13.90;94.70
71142;DHT22;58808;59.366;17.970;2023-05-16T00:36:52;13.90;94.80
71142;DHT22;58808;59.366;17.970;2023-05-16T00:39:18;13.90;94.80
71142;DHT22;58808;59.366;17.970;2023-05-16T00:41:44;13.90;94.80
71142;DHT22;58808;59.366;17.970;2023-05-16T00:44:10;13.90;94.60
71142;DHT22;58808;59.366;17.970;2023-05-16T00:46:36;13.90;94.50
71142;DHT22;58808;59.366;17.970;2023-05-16T00:49:02;13.90;94.50
71142;DHT22;58808;59.366;17.970;2023-05-16T00:51:29;13.80;94.40
71142;DHT22;58808;59.366;17.970;2023-05-16T00:53:56;13.80;94.50
71142;DHT22;58808;59.366;17.970;2023-05-16T00:56:21;13.70;94.80
71142;DHT22;58808;59.366;17.970;2023-05-16T00:58:48;13.70;95.00
71142;DHT22;58808;59.366;17.970;2023-05-16T01:01:15;13.70;95.20
71142;DHT22;58808;59.366;17.970;2023-05-16T01:03:42;13.70;95.30
71142;DHT22;58808;59.366;17.970;2023-05-16T01:06:11;13.70;95.30
71142;DHT22;58808;59.366;17.970;2023-05-16T01:08:37;13.70;95.40
71142;DHT22;58808;59.366;17.970;2023-05-16T01:11:23;13.60;95.50
71142;DHT22;58808;59.366;17.970;2023-05-16T01:17:12;13.60;95.30
71142;DHT22;58808;59.366;17.970;2023-05-16T01:25:35;13.60;95.50
71142;DHT22;58808;59.366;17.970;2023-05-16T01:28:04;13.60;95.60
71142;DHT22;58808;59.366;17.970;2023-05-16T01:30:39;13.60;95.70
71142;DHT22;58808;59.366;17.970;2023-05-16T01:33:06;13.60;95.70
71142;DHT22;58808;59.366;17.970;2023-05-16T01:35:32;13.60;95.80
71142;DHT22;58808;59.366;17.970;2023-05-16T01:38:40;13.40;96.20
71142;DHT22;58808;59.366;17.970;2023-05-16T01:41:12;13.50;96.40
71142;DHT22;58808;59.366;17.970;2023-05-16T01:43:45;13.50;96.60
71142;DHT22;58808;59.366;17.970;2023-05-16T01:46:21;13.50;96.40
71142;DHT22;58808;59.366;17.970;2023-05-16T01:48:57;13.50;95.90
71142;DHT22;58808;59.366;17.970;2023-05-16T01:51:26;13.40;95.80
71142;DHT22;58808;59.366;17.970;2023-05-16T01:53:57;13.50;95.60
71142;DHT22;58808;59.366;17.970;2023-05-16T01:56:27;13.50;95.30
71142;DHT22;58808;59.366;17.970;2023-05-16T01:58:54;13.50;95.20
71142;DHT22;58808;59.366;17.970;2023-05-16T02:01:22;13.50;95.00
71142;DHT22;58808;59.366;17.970;2023-05-16T02:03:47;13.50;94.80
71142;DHT22;58808;59.366;17.970;2023-05-16T02:06:13;13.50;94.90
71142;DHT22;58808;59.366;17.970;2023-05-16T02:08:39;13.50;94.70
71142;DHT22;58808;59.366;17.970;2023-05-16T02:11:05;13.50;94.80
71142;DHT22;58808;59.366;17.970;2023-05-16T02:13:30;13.50;94.80
71142;DHT22;58808;59.366;17.970;2023-05-16T02:15:56;13.50;94.50
71142;DHT22;58808;59.366;17.970;2023-05-16T02:18:22;13.50;94.60
71142;DHT22;58808;59.366;17.970;2023-05-16T02:20:48;13.50;94.60
71142;DHT22;58808;59.366;17.970;2023-05-16T02:23:14;13.40;94.50
71142;DHT22;58808;59.366;17.970;2023-05-16T02:25:40;13.50;94.60
71142;DHT22;58808;59.366;17.970;2023-05-16T02:28:06;13.50;94.50
71142;DHT22;58808;59.366;17.970;2023-05-16T02:30:31;13.50;94.30
71142;DHT22;58808;59.366;17.970;2023-05-16T02:32:57;13.50;94.10
71142;DHT22;58808;59.366;17.970;2023-05-16T02:35:23;13.50;94.20
71142;DHT22;58808;59.366;17.970;2023-05-16T02:37:49;13.50;94.00
71142;DHT22;58808;59.366;17.970;2023-05-16T02:40:15;13.50;94.10
71142;DHT22;58808;59.366;17.970;2023-05-16T02:42:41;13.50;93.90
71142;DHT22;58808;59.366;17.970;2023-05-16T02:45:07;13.50;94.10
71142;DHT22;58808;59.366;17.970;2023-05-16T02:47:33;13.40;94.40
71142;DHT22;58808;59.366;17.970;2023-05-16T02:49:58;13.40;94.50
71142;DHT22;58808;59.366;17.970;2023-05-16T02:52:24;13.40;95.00
71142;DHT22;58808;59.366;17.970;2023-05-16T02:54:50;13.40;95.30
71142;DHT22;58808;59.366;17.970;2023-05-16T02:57:16;13.40;95.90
71142;DHT22;58808;59.366;17.970;2023-05-16T02:59:42;13.40;96.10
71142;DHT22;58808;59.366;17.970;2023-05-16T03:02:07;13.40;96.00
71142;DHT22;58808;59.366;17.970;2023-05-16T03:04:33;13.40;96.10
71142;DHT22;58808;59.366;17.970;2023-05-16T03:06:59;13.30;96.10
71142;DHT22;58808;59.366;17.970;2023-05-16T03:09:25;13.30;96.30
71142;DHT22;58808;59.366;17.970;2023-05-16T03:11:51;13.30;96.50
71142;DHT22;58808;59.366;17.970;2023-05-16T03:14:16;13.40;96.50
71142;DHT22;58808;59.366;17.970;2023-05-16T03:16:42;13.40;96.50
71142;DHT22;58808;59.366;17.970;2023-05-16T03:19:09;13.40;96.70
71142;DHT22;58808;59.366;17.970;2023-05-16T03:21:35;13.40;96.70
71142;DHT22;58808;59.366;17.970;2023-05-16T03:24:04;13.40;96.70
71142;DHT22;58808;59.366;17.970;2023-05-16T03:26:30;13.40;96.70
71142;DHT22;58808;59.366;17.970;2023-05-16T03:28:55;13.50;96.80
71142;DHT22;58808;59.366;17.970;2023-05-16T03:31:21;13.50;96.70
71142;DHT22;58808;59.366;17.970;2023-05-16T03:33:47;13.50;96.80
71142;DHT22;58808;59.366;17.970;2023-05-16T03:36:13;13.40;96.80
71142;DHT22;58808;59.366;17.970;2023-05-16T03:38:39;13.40;97.30
71142;DHT22;58808;59.366;17.970;2023-05-16T03:41:05;13.30;97.40
71142;DHT22;58808;59.366;17.970;2023-05-16T03:43:30;13.40;97.80
71142;DHT22;58808;59.366;17.970;2023-05-16T03:45:56;13.40;98.20
71142;DHT22;58808;59.366;17.970;2023-05-16T03:48:22;13.30;98.20
71142;DHT22;58808;59.366;17.970;2023-05-16T03:50:48;13.30;98.60
71142;DHT22;58808;59.366;17.970;2023-05-16T03:53:13;13.30;99.00
71142;DHT22;58808;59.366;17.970;2023-05-16T03:55:39;13.40;99.60
71142;DHT22;58808;59.366;17.970;2023-05-16T03:58:05;13.40;99.70
71142;DHT22;58808;59.366;17.970;2023-05-16T04:00:32;13.40;99.90
71142;DHT22;58808;59.366;17.970;2023-05-16T04:02:58;13.50;99.90
71142;DHT22;58808;59.366;17.970;2023-05-16T04:05:24;13.50;99.90
71142;DHT22;58808;59.366;17.970;2023-05-16T04:07:50;13.50;99.90
71142;DHT22;58808;59.366;17.970;2023-05-16T04:10:16;13.50;99.90
71142;DHT22;58808;59.366;17.970;2023-05-16T04:12:42;13.50;99.90
71142;DHT22;58808;59.366;17.970;2023-05-16T04:15:09;13.50;99.90
71142;DHT22;58808;59.366;17.970;2023-05-16T04:17:34;13.50;99.90
71142;DHT22;58808;59.366;17.970;2023-05-16T04:20:01;13.50;99.90
71142;DHT22;58808;59.366;17.970;2023-05-16T04:22:27;13.50;99.90
71142;DHT22;58808;59.366;17.970;2023-05-16T04:24:53;13.50;99.90
71142;DHT22;58808;59.366;17.970;2023-05-16T04:27:19;13.50;99.90
71142;DHT22;58808;59.366;17.970;2023-05-16T04:29:44;13.40;99.90
71142;DHT22;58808;59.366;17.970;2023-05-16T04:32:10;13.40;99.90
71142;DHT22;58808;59.366;17.970;2023-05-16T04:34:36;13.40;99.90
71142;DHT22;58808;59.366;17.970;2023-05-16T04:37:06;13.40;99.90
71142;DHT22;58808;59.366;17.970;2023-05-16T04:39:34;13.40;99.90
71142;DHT22;58808;59.366;17.970;2023-05-16T04:42:00;13.40;99.90
71142;DHT22;58808;59.366;17.970;2023-05-16T04:44:27;13.40;99.90
71142;DHT22;58808;59.366;17.970;2023-05-16T04:46:52;13.40;99.90
71142;DHT22;58808;59.366;17.970;2023-05-16T04:49:19;13.40;99.90
71142;DHT22;58808;59.366;17.970;2023-05-16T04:51:45;13.40;99.90
71142;DHT22;58808;59.366;17.970;2023-05-16T04:54:11;13.40;99.90
71142;DHT22;58808;59.366;17.970;2023-05-16T04:56:37;13.30;99.90
71142;DHT22;58808;59.366;17.970;2023-05-16T04:59:03;13.20;99.90
71142;DHT22;58808;59.366;17.970;2023-05-16T05:01:29;13.10;99.90
71142;DHT22;58808;59.366;17.970;2023-05-16T05:03:55;13.00;99.90
71142;DHT22;58808;59.366;17.970;2023-05-16T05:06:21;13.00;99.90
71142;DHT22;58808;59.366;17.970;2023-05-16T05:08:47;13.00;99.90
71142;DHT22;58808;59.366;17.970;2023-05-16T05:11:13;13.00;99.90
71142;DHT22;58808;59.366;17.970;2023-05-16T05:13:39;13.10;99.90
71142;DHT22;58808;59.366;17.970;2023-05-16T05:16:05;13.10;99.90
71142;DHT22;58808;59.366;17.970;2023-05-16T05:18:31;13.10;99.90
71142;DHT22;58808;59.366;17.970;2023-05-16T05:20:57;13.00;99.90
71142;DHT22;58808;59.366;17.970;2023-05-16T05:23:23;13.10;99.90
71142;DHT22;58808;59.366;17.970;2023-05-16T05:25:49;13.10;99.90
71142;DHT22;58808;59.366;17.970;2023-05-16T05:28:15;13.20;99.90
71142;DHT22;58808;59.366;17.970;2023-05-16T05:30:41;13.20;99.90
71142;DHT22;58808;59.366;17.970;2023-05-16T05:33:07;13.20;99.90
71142;DHT22;58808;59.366;17.970;2023-05-16T05:35:32;13.20;99.90
71142;DHT22;58808;59.366;17.970;2023-05-16T05:37:58;13.20;99.90
71142;DHT22;58808;59.366;17.970;2023-05-16T05:40:24;13.20;99.90
71142;DHT22;58808;59.366;17.970;2023-05-16T05:42:50;13.20;99.90
71142;DHT22;58808;59.366;17.970;2023-05-16T05:45:15;13.20;99.90
71142;DHT22;58808;59.366;17.970;2023-05-16T05:47:42;13.30;99.90
71142;DHT22;58808;59.366;17.970;2023-05-16T05:50:08;13.20;99.90
71142;DHT22;58808;59.366;17.970;2023-05-16T05:52:36;13.20;99.90
71142;DHT22;58808;59.366;17.970;2023-05-16T05:55:02;13.20;99.90
71142;DHT22;58808;59.366;17.970;2023-05-16T05:57:28;13.20;99.90
71142;DHT22;58808;59.366;17.970;2023-05-16T05:59:54;13.20;99.90
71142;DHT22;58808;59.366;17.970;2023-05-16T06:02:20;13.20;99.90
71142;DHT22;58808;59.366;17.970;2023-05-16T06:04:45;13.20;99.90
71142;DHT22;58808;59.366;17.970;2023-05-16T06:07:11;13.20;99.90
71142;DHT22;58808;59.366;17.970;2023-05-16T06:09:37;13.20;99.90
71142;DHT22;58808;59.366;17.970;2023-05-16T06:12:03;13.20;99.90
71142;DHT22;58808;59.366;17.970;2023-05-16T06:14:29;13.10;99.90
71142;DHT22;58808;59.366;17.970;2023-05-16T06:16:55;13.10;99.90
71142;DHT22;58808;59.366;17.970;2023-05-16T06:19:21;13.10;99.90
71142;DHT22;58808;59.366;17.970;2023-05-16T06:21:47;13.10;99.90
71142;DHT22;58808;59.366;17.970;2023-05-16T06:24:13;13.10;99.90
71142;DHT22;58808;59.366;17.970;2023-05-16T06:26:39;13.10;99.90
71142;DHT22;58808;59.366;17.970;2023-05-16T06:29:05;13.20;99.90
71142;DHT22;58808;59.366;17.970;2023-05-16T06:31:30;13.20;99.90
71142;DHT22;58808;59.366;17.970;2023-05-16T06:33:56;13.20;99.90
71142;DHT22;58808;59.366;17.970;2023-05-16T06:36:22;13.20;99.90
71142;DHT22;58808;59.366;17.970;2023-05-16T06:38:48;13.30;99.90
71142;DHT22;58808;59.366;17.970;2023-05-16T06:41:15;13.30;99.90
71142;DHT22;58808;59.366;17.970;2023-05-16T06:43:41;13.30;99.90
71142;DHT22;58808;59.366;17.970;2023-05-16T06:46:06;13.30;99.90
71142;DHT22;58808;59.366;17.970;2023-05-16T06:48:32;13.30;99.90
71142;DHT22;58808;59.366;17.970;2023-05-16T06:50:58;13.30;99.90
71142;DHT22;58808;59.366;17.970;2023-05-16T06:53:24;13.20;99.90
71142;DHT22;58808;59.366;17.970;2023-05-16T06:55:50;13.20;99.90
71142;DHT22;58808;59.366;17.970;2023-05-16T06:58:16;13.20;99.90
71142;DHT22;58808;59.366;17.970;2023-05-16T07:00:42;13.20;99.90
71142;DHT22;58808;59.366;17.970;2023-05-16T07:03:08;13.20;99.90
71142;DHT22;58808;59.366;17.970;2023-05-16T07:05:34;13.20;99.90
71142;DHT22;58808;59.366;17.970;2023-05-16T07:08:00;13.30;99.90
71142;DHT22;58808;59.366;17.970;2023-05-16T07:10:26;13.30;99.90
71142;DHT22;58808;59.366;17.970;2023-05-16T07:12:52;13.30;99.90
71142;DHT22;58808;59.366;17.970;2023-05-16T07:15:17;13.30;99.90
71142;DHT22;58808;59.366;17.970;2023-05-16T07:17:43;13.30;99.90
71142;DHT22;58808;59.366;17.970;2023-05-16T07:20:09;13.30;99.90
71142;DHT22;58808;59.366;17.970;2023-05-16T07:22:38;13.20;99.90
71142;DHT22;58808;59.366;17.970;2023-05-16T07:25:04;13.20;99.90
71142;DHT22;58808;59.366;17.970;2023-05-16T07:27:30;13.10;99.90
71142;DHT22;58808;59.366;17.970;2023-05-16T07:29:57;13.20;99.90
71142;DHT22;58808;59.366;17.970;2023-05-16T07:32:22;13.20;99.90
71142;DHT22;58808;59.366;17.970;2023-05-16T07:34:48;13.20;99.90
71142;DHT22;58808;59.366;17.970;2023-05-16T07:37:14;13.20;99.90
71142;DHT22;58808;59.366;17.970;2023-05-16T07:39:41;13.20;99.90
71142;DHT22;58808;59.366;17.970;2023-05-16T07:42:07;13.20;99.90
71142;DHT22;58808;59.366;17.970;2023-05-16T07:44:34;13.20;99.90
71142;DHT22;58808;59.366;17.970;2023-05-16T07:47:00;13.20;99.90
71142;DHT22;58808;59.366;17.970;2023-05-16T07:49:26;13.10;99.90
71142;DHT22;58808;59.366;17.970;2023-05-16T07:51:52;13.20;99.90
71142;DHT22;58808;59.366;17.970;2023-05-16T07:54:17;13.20;99.90
71142;DHT22;58808;59.366;17.970;2023-05-16T07:56:43;13.20;99.90
71142;DHT22;58808;59.366;17.970;2023-05-16T07:59:09;13.20;99.90
71142;DHT22;58808;59.366;17.970;2023-05-16T08:01:35;13.20;99.90
71142;DHT22;58808;59.366;17.970;2023-05-16T08:04:01;13.20;99.90
71142;DHT22;58808;59.366;17.970;2023-05-16T08:06:27;13.30;99.90
71142;DHT22;58808;59.366;17.970;2023-05-16T08:08:54;13.30;99.90
71142;DHT22;58808;59.366;17.970;2023-05-16T08:11:20;13.30;99.90
71142;DHT22;58808;59.366;17.970;2023-05-16T08:13:50;13.40;99.90
71142;DHT22;58808;59.366;17.970;2023-05-16T08:16:15;13.50;99.90
71142;DHT22;58808;59.366;17.970;2023-05-16T08:18:41;13.50;99.90
71142;DHT22;58808;59.366;17.970;2023-05-16T08:21:07;13.70;99.90
71142;DHT22;58808;59.366;17.970;2023-05-16T08:23:34;13.80;99.90
71142;DHT22;58808;59.366;17.970;2023-05-16T08:26:00;14.00;99.90
71142;DHT22;58808;59.366;17.970;2023-05-16T08:28:27;14.10;99.90
71142;DHT22;58808;59.366;17.970;2023-05-16T08:30:53;14.10;99.90
71142;DHT22;58808;59.366;17.970;2023-05-16T08:33:19;14.10;99.90
71142;DHT22;58808;59.366;17.970;2023-05-16T08:35:45;14.00;99.90
71142;DHT22;58808;59.366;17.970;2023-05-16T08:38:10;14.00;99.90
71142;DHT22;58808;59.366;17.970;2023-05-16T08:40:36;14.00;99.90
71142;DHT22;58808;59.366;17.970;2023-05-16T08:43:02;14.00;99.90
71142;DHT22;58808;59.366;17.970;2023-05-16T08:45:29;14.00;99.90
71142;DHT22;58808;59.366;17.970;2023-05-16T08:47:55;14.00;99.90
71142;DHT22;58808;59.366;17.970;2023-05-16T08:50:23;14.00;99.90
71142;DHT22;58808;59.366;17.970;2023-05-16T08:52:51;14.00;99.90
71142;DHT22;58808;59.366;17.970;2023-05-16T08:55:19;14.10;99.90
71142;DHT22;58808;59.366;17.970;2023-05-16T08:57:48;14.10;99.90
71142;DHT22;58808;59.366;17.970;2023-05-16T09:00:16;14.10;99.90
71142;DHT22;58808;59.366;17.970;2023-05-16T09:02:44;14.10;99.90
71142;DHT22;58808;59.366;17.970;2023-05-16T09:05:12;14.00;99.90
71142;DHT22;58808;59.366;17.970;2023-05-16T09:07:38;13.90;99.90
71142;DHT22;58808;59.366;17.970;2023-05-16T09:10:08;13.90;99.90
71142;DHT22;58808;59.366;17.970;2023-05-16T09:12:34;13.90;99.90
71142;DHT22;58808;59.366;17.970;2023-05-16T09:15:04;13.90;99.90
71142;DHT22;58808;59.366;17.970;2023-05-16T09:17:38;13.90;99.90
71142;DHT22;58808;59.366;17.970;2023-05-16T09:20:18;13.90;99.90
71142;DHT22;58808;59.366;17.970;2023-05-16T09:22:55;13.90;99.90
71142;DHT22;58808;59.366;17.970;2023-05-16T09:25:23;13.90;99.90
71142;DHT22;58808;59.366;17.970;2023-05-16T09:27:53;13.80;99.90
71142;DHT22;58808;59.366;17.970;2023-05-16T09:30:33;13.80;99.90
71142;DHT22;58808;59.366;17.970;2023-05-16T09:32:59;13.90;99.90
71142;DHT22;58808;59.366;17.970;2023-05-16T09:35:25;13.90;99.90
71142;DHT22;58808;59.366;17.970;2023-05-16T09:37:51;13.90;99.90
71142;DHT22;58808;59.366;17.970;2023-05-16T09:40:21;14.00;99.90
71142;DHT22;58808;59.366;17.970;2023-05-16T09:43:01;14.00;99.90
71142;DHT22;58808;59.366;17.970;2023-05-16T09:45:28;14.00;99.90
71142;DHT22;58808;59.366;17.970;2023-05-16T09:48:00;14.00;99.90
71142;DHT22;58808;59.366;17.970;2023-05-16T09:50:26;14.00;99.90
71142;DHT22;58808;59.366;17.970;2023-05-16T09:52:51;14.00;99.90
71142;DHT22;58808;59.366;17.970;2023-05-16T09:55:17;14.00;99.90
71142;DHT22;58808;59.366;17.970;2023-05-16T09:57:43;14.00;99.90
71142;DHT22;58808;59.366;17.970;2023-05-16T10:00:11;14.00;99.90
71142;DHT22;58808;59.366;17.970;2023-05-16T10:02:37;14.00;99.90
71142;DHT22;58808;59.366;17.970;2023-05-16T10:05:04;14.00;99.90
71142;DHT22;58808;59.366;17.970;2023-05-16T10:07:31;13.90;99.90
71142;DHT22;58808;59.366;17.970;2023-05-16T10:10:03;13.90;99.90
71142;DHT22;58808;59.366;17.970;2023-05-16T10:12:30;13.90;99.90
71142;DHT22;58808;59.366;17.970;2023-05-16T10:14:59;13.90;99.90
71142;DHT22;58808;59.366;17.970;2023-05-16T10:17:27;13.80;99.90
71142;DHT22;58808;59.366;17.970;2023-05-16T10:19:57;13.80;99.90
71142;DHT22;58808;59.366;17.970;2023-05-16T10:22:23;13.80;99.90
71142;DHT22;58808;59.366;17.970;2023-05-16T10:25:07;13.80;99.90
71142;DHT22;58808;59.366;17.970;2023-05-16T10:27:34;13.90;99.90
71142;DHT22;58808;59.366;17.970;2023-05-16T10:30:01;13.90;99.90
71142;DHT22;58808;59.366;17.970;2023-05-16T10:32:27;13.90;99.90
71142;DHT22;58808;59.366;17.970;2023-05-16T10:34:54;14.00;99.90
71142;DHT22;58808;59.366;17.970;2023-05-16T10:37:28;14.00;99.90
71142;DHT22;58808;59.366;17.970;2023-05-16T10:39:55;14.00;99.90
71142;DHT22;58808;59.366;17.970;2023-05-16T10:42:21;14.10;99.90
71142;DHT22;58808;59.366;17.970;2023-05-16T10:44:46;14.10;99.90
71142;DHT22;58808;59.366;17.970;2023-05-16T10:47:12;14.10;99.90
71142;DHT22;58808;59.366;17.970;2023-05-16T10:49:43;14.00;99.90
71142;DHT22;58808;59.366;17.970;2023-05-16T10:52:10;14.00;99.90
71142;DHT22;58808;59.366;17.970;2023-05-16T10:54:41;13.90;99.90
71142;DHT22;58808;59.366;17.970;2023-05-16T10:57:09;13.90;99.90
71142;DHT22;58808;59.366;17.970;2023-05-16T10:59:50;13.90;99.90
71142;DHT22;58808;59.366;17.970;2023-05-16T11:02:27;13.90;99.90
71142;DHT22;58808;59.366;17.970;2023-05-16T11:04:57;13.90;99.90
71142;DHT22;58808;59.366;17.970;2023-05-16T11:07:25;14.00;99.90
71142;DHT22;58808;59.366;17.970;2023-05-16T11:12:42;14.00;99.90
71142;DHT22;58808;59.366;17.970;2023-05-16T11:15:26;14.00;99.90
71142;DHT22;58808;59.366;17.970;2023-05-16T11:18:08;14.00;99.90
71142;DHT22;58808;59.366;17.970;2023-05-16T11:20:36;14.00;99.90
71142;DHT22;58808;59.366;17.970;2023-05-16T11:25:48;14.00;99.90
71142;DHT22;58808;59.366;17.970;2023-05-16T11:28:16;14.10;99.90
71142;DHT22;58808;59.366;17.970;2023-05-16T11:30:48;14.10;99.90
71142;DHT22;58808;59.366;17.970;2023-05-16T11:33:15;14.10;99.90
71142;DHT22;58808;59.366;17.970;2023-05-16T11:35:42;14.00;99.90
71142;DHT22;58808;59.366;17.970;2023-05-16T11:38:12;14.00;99.90
71142;DHT22;58808;59.366;17.970;2023-05-16T11:40:44;14.00;99.90
71142;DHT22;58808;59.366;17.970;2023-05-16T11:43:10;14.00;99.90
71142;DHT22;58808;59.366;17.970;2023-05-16T11:45:36;14.00;99.90
71142;DHT22;58808;59.366;17.970;2023-05-16T11:48:03;14.00;99.90
71142;DHT22;58808;59.366;17.970;2023-05-16T11:50:29;13.90;99.90
71142;DHT22;58808;59.366;17.970;2023-05-16T11:52:55;13.90;99.90
71142;DHT22;58808;59.366;17.970;2023-05-16T11:55:26;14.00;99.90
71142;DHT22;58808;59.366;17.970;2023-05-16T11:57:53;14.00;99.90
71142;DHT22;58808;59.366;17.970;2023-05-16T12:00:21;14.00;99.90
71142;DHT22;58808;59.366;17.970;2023-05-16T12:02:49;14.00;99.90
71142;DHT22;58808;59.366;17.970;2023-05-16T12:05:16;14.00;99.90
71142;DHT22;58808;59.366;17.970;2023-05-16T12:07:44;14.00;99.90
71142;DHT22;58808;59.366;17.970;2023-05-16T12:10:12;14.00;99.90
71142;DHT22;58808;59.366;17.970;2023-05-16T12:12:40;14.00;99.90
71142;DHT22;58808;59.366;17.970;2023-05-16T12:15:07;14.00;99.90
71142;DHT22;58808;59.366;17.970;2023-05-16T12:17:35;14.10;99.90
71142;DHT22;58808;59.366;17.970;2023-05-16T12:20:02;14.10;99.90
71142;DHT22;58808;59.366;17.970;2023-05-16T12:22:31;14.10;99.90
71142;DHT22;58808;59.366;17.970;2023-05-16T12:25:17;14.10;99.90
71142;DHT22;58808;59.366;17.970;2023-05-16T12:27:45;14.10;99.90
71142;DHT22;58808;59.366;17.970;2023-05-16T12:30:11;14.10;99.90
71142;DHT22;58808;59.366;17.970;2023-05-16T12:32:37;14.10;99.90
71142;DHT22;58808;59.366;17.970;2023-05-16T12:35:03;14.10;99.90
71142;DHT22;58808;59.366;17.970;2023-05-16T12:37:29;14.20;99.90
71142;DHT22;58808;59.366;17.970;2023-05-16T12:40:01;14.20;99.90
71142;DHT22;58808;59.366;17.970;2023-05-16T12:42:29;14.20;99.90
71142;DHT22;58808;59.366;17.970;2023-05-16T12:44:55;14.20;99.90
71142;DHT22;58808;59.366;17.970;2023-05-16T12:47:21;14.20;99.90
71142;DHT22;58808;59.366;17.970;2023-05-16T12:49:47;14.20;99.90
71142;DHT22;58808;59.366;17.970;2023-05-16T12:52:20;14.20;99.90
71142;DHT22;58808;59.366;17.970;2023-05-16T12:54:46;14.30;99.90
71142;DHT22;58808;59.366;17.970;2023-05-16T12:57:13;14.30;99.90
71142;DHT22;58808;59.366;17.970;2023-05-16T12:59:39;14.30;99.90
71142;DHT22;58808;59.366;17.970;2023-05-16T13:02:04;14.40;99.90
71142;DHT22;58808;59.366;17.970;2023-05-16T13:04:30;14.40;99.90
71142;DHT22;58808;59.366;17.970;2023-05-16T13:06:56;14.40;99.90
71142;DHT22;58808;59.366;17.970;2023-05-16T13:09:22;14.40;99.90
71142;DHT22;58808;59.366;17.970;2023-05-16T13:11:49;14.50;99.90
71142;DHT22;58808;59.366;17.970;2023-05-16T13:14:15;14.60;99.90
71142;DHT22;58808;59.366;17.970;2023-05-16T13:16:42;14.60;99.90
71142;DHT22;58808;59.366;17.970;2023-05-16T13:19:08;14.70;99.90
71142;DHT22;58808;59.366;17.970;2023-05-16T13:21:34;14.80;99.90
71142;DHT22;58808;59.366;17.970;2023-05-16T13:24:00;14.80;99.90
71142;DHT22;58808;59.366;17.970;2023-05-16T13:26:25;14.80;99.90
71142;DHT22;58808;59.366;17.970;2023-05-16T13:28:52;14.90;99.90
71142;DHT22;58808;59.366;17.970;2023-05-16T13:31:20;15.00;99.90
71142;DHT22;58808;59.366;17.970;2023-05-16T13:33:46;15.00;99.90
71142;DHT22;58808;59.366;17.970;2023-05-16T13:36:12;15.10;99.90
71142;DHT22;58808;59.366;17.970;2023-05-16T13:38:38;15.20;99.90
71142;DHT22;58808;59.366;17.970;2023-05-16T13:41:04;15.20;99.90
71142;DHT22;58808;59.366;17.970;2023-05-16T13:43:29;15.20;99.90
71142;DHT22;58808;59.366;17.970;2023-05-16T13:45:55;15.20;99.90
71142;DHT22;58808;59.366;17.970;2023-05-16T13:48:21;15.10;99.90
71142;DHT22;58808;59.366;17.970;2023-05-16T13:50:47;15.10;99.90
71142;DHT22;58808;59.366;17.970;2023-05-16T13:53:13;15.10;99.90
71142;DHT22;58808;59.366;17.970;2023-05-16T13:55:38;15.10;99.90
71142;DHT22;58808;59.366;17.970;2023-05-16T13:58:04;15.10;99.90
71142;DHT22;58808;59.366;17.970;2023-05-16T14:00:30;15.10;99.90
71142;DHT22;58808;59.366;17.970;2023-05-16T14:02:56;15.10;99.90
71142;DHT22;58808;59.366;17.970;2023-05-16T14:05:21;15.20;99.90
71142;DHT22;58808;59.366;17.970;2023-05-16T14:07:47;15.20;99.90
71142;DHT22;58808;59.366;17.970;2023-05-16T14:10:13;15.20;99.90
71142;DHT22;58808;59.366;17.970;2023-05-16T14:12:39;15.20;99.90
71142;DHT22;58808;59.366;17.970;2023-05-16T14:15:05;15.20;99.90
71142;DHT22;58808;59.366;17.970;2023-05-16T14:17:31;15.20;99.90
71142;DHT22;58808;59.366;17.970;2023-05-16T14:19:57;15.20;99.90
71142;DHT22;58808;59.366;17.970;2023-05-16T14:22:23;15.10;99.90
71142;DHT22;58808;59.366;17.970;2023-05-16T14:24:49;15.10;99.90
71142;DHT22;58808;59.366;17.970;2023-05-16T14:27:15;15.10;99.90
71142;DHT22;58808;59.366;17.970;2023-05-16T14:29:41;15.20;99.90
71142;DHT22;58808;59.366;17.970;2023-05-16T14:32:09;15.10;99.90
71142;DHT22;58808;59.366;17.970;2023-05-16T14:34:36;15.10;99.90
71142;DHT22;58808;59.366;17.970;2023-05-16T14:37:02;15.00;99.90
71142;DHT22;58808;59.366;17.970;2023-05-16T14:39:27;15.10;99.90
71142;DHT22;58808;59.366;17.970;2023-05-16T14:41:53;15.00;99.90
71142;DHT22;58808;59.366;17.970;2023-05-16T14:44:19;14.90;99.90
71142;DHT22;58808;59.366;17.970;2023-05-16T14:46:46;14.90;99.90
71142;DHT22;58808;59.366;17.970;2023-05-16T14:49:12;14.90;99.90
71142;DHT22;58808;59.366;17.970;2023-05-16T14:51:38;14.90;99.90
71142;DHT22;58808;59.366;17.970;2023-05-16T14:54:03;15.00;99.90
71142;DHT22;58808;59.366;17.970;2023-05-16T14:56:30;15.00;99.90
71142;DHT22;58808;59.366;17.970;2023-05-16T14:58:56;15.00;99.90
71142;DHT22;58808;59.366;17.970;2023-05-16T15:01:22;15.00;99.90
71142;DHT22;58808;59.366;17.970;2023-05-16T15:03:48;14.90;99.90
71142;DHT22;58808;59.366;17.970;2023-05-16T15:06:13;14.90;99.90
71142;DHT22;58808;59.366;17.970;2023-05-16T15:08:39;15.00;99.90
71142;DHT22;58808;59.366;17.970;2023-05-16T15:11:05;15.00;99.90
71142;DHT22;58808;59.366;17.970;2023-05-16T15:13:31;15.00;99.90
71142;DHT22;58808;59.366;17.970;2023-05-16T15:15:57;15.00;99.90
71142;DHT22;58808;59.366;17.970;2023-05-16T15:18:23;14.90;99.90
71142;DHT22;58808;59.366;17.970;2023-05-16T15:20:49;14.90;99.90
71142;DHT22;58808;59.366;17.970;2023-05-16T15:23:16;14.90;99.90
71142;DHT22;58808;59.366;17.970;2023-05-16T15:25:42;14.90;99.90
71142;DHT22;58808;59.366;17.970;2023-05-16T15:28:08;15.00;99.90